createdAt,value
2022-11-19T00:01:34.232Z,8.60
2022-11-19T00:04:02.043Z,7.90
2022-11-19T00:06:31.237Z,11.43
2022-11-19T00:08:59.094Z,9.93
2022-11-19T00:11:41.770Z,9.77
2022-11-19T00:14:09.705Z,10.10
2022-11-19T00:16:37.381Z,11.50
2022-11-19T00:19:05.111Z,9.47
2022-11-19T00:21:34.577Z,11.67
2022-11-19T00:24:02.547Z,10.60
2022-11-19T00:26:30.456Z,10.07
2022-11-19T00:28:58.328Z,8.47
2022-11-19T00:31:26.312Z,11.67
2022-11-19T00:33:55.156Z,13.30
2022-11-19T00:36:23.451Z,9.77
2022-11-19T00:38:52.756Z,12.53
2022-11-19T00:41:21.050Z,8.90
2022-11-19T00:43:49.363Z,10.70
2022-11-19T00:46:17.885Z,12.70
2022-11-19T00:48:45.679Z,7.80
2022-11-19T00:51:13.561Z,12.20
2022-11-19T00:53:41.271Z,9.97
2022-11-19T00:56:11.579Z,10.00
2022-11-19T00:58:39.349Z,8.70
2022-11-19T01:01:07.542Z,12.13
2022-11-19T01:03:35.934Z,15.63
2022-11-19T01:06:03.805Z,10.23
2022-11-19T01:08:31.983Z,12.03
2022-11-19T01:11:05.089Z,9.83
2022-11-19T01:13:37.455Z,11.80
2022-11-19T01:16:06.977Z,9.27
2022-11-19T01:18:35.172Z,9.87
2022-11-19T01:21:03.195Z,11.13
2022-11-19T01:23:31.616Z,10.90
2022-11-19T01:25:59.444Z,9.30
2022-11-19T01:28:27.670Z,10.90
2022-11-19T01:30:57.117Z,11.00
2022-11-19T01:33:24.890Z,9.33
2022-11-19T01:35:56.791Z,10.27
2022-11-19T01:38:24.481Z,9.47
2022-11-19T01:40:52.598Z,11.73
2022-11-19T01:43:20.791Z,9.80
2022-11-19T01:45:49.382Z,11.07
2022-11-19T01:48:21.754Z,7.63
2022-11-19T01:50:51.211Z,11.07
2022-11-19T01:53:19.338Z,8.53
2022-11-19T01:55:47.259Z,10.50
2022-11-19T01:58:16.217Z,9.73
2022-11-19T02:00:44.150Z,9.30
2022-11-19T02:03:12.652Z,10.30
2022-11-19T02:05:42.357Z,10.10
2022-11-19T02:08:11.487Z,8.87
2022-11-19T02:10:44.088Z,11.33
2022-11-19T02:13:14.475Z,10.33
2022-11-19T02:15:43.490Z,11.67
2022-11-19T02:18:25.848Z,9.30
2022-11-19T02:21:17.079Z,11.60
2022-11-19T02:24:27.324Z,9.77
2022-11-19T02:27:32.631Z,10.43
2022-11-19T02:30:10.220Z,12.63
2022-11-19T02:32:48.759Z,13.37
2022-11-19T02:35:20.803Z,20.53
2022-11-19T02:37:50.820Z,11.33
2022-11-19T02:40:21.683Z,11.90
2022-11-19T02:42:53.709Z,10.57
2022-11-19T02:45:24.274Z,11.03
2022-11-19T02:47:53.598Z,11.13
2022-11-19T02:50:23.882Z,13.27
2022-11-19T02:52:51.551Z,10.30
2022-11-19T02:55:20.767Z,9.30
2022-11-19T02:57:50.242Z,10.37
2022-11-19T03:00:36.430Z,10.00
2022-11-19T03:03:24.427Z,9.67
2022-11-19T03:05:53.279Z,9.03
2022-11-19T03:08:21.294Z,8.60
2022-11-19T03:10:53.940Z,9.40
2022-11-19T03:13:45.746Z,10.50
2022-11-19T03:16:33.447Z,11.50
2022-11-19T03:19:05.793Z,11.07
2022-11-19T03:21:36.503Z,10.37
2022-11-19T03:24:06.326Z,11.00
2022-11-19T03:26:35.273Z,9.20
2022-11-19T03:29:03.942Z,9.53
2022-11-19T03:31:31.805Z,9.00
2022-11-19T03:34:02.816Z,10.77
2022-11-19T03:36:33.407Z,6.83
2022-11-19T03:39:03.464Z,7.87
2022-11-19T03:41:31.411Z,9.30
2022-11-19T03:44:03.251Z,9.87
2022-11-19T03:46:32.671Z,7.20
2022-11-19T03:49:02.100Z,7.53
2022-11-19T03:51:31.791Z,8.47
2022-11-19T03:53:59.982Z,7.90
2022-11-19T03:56:27.754Z,7.07
2022-11-19T03:58:55.539Z,8.17
2022-11-19T04:01:23.382Z,7.77
2022-11-19T04:04:05.476Z,6.90
2022-11-19T04:06:34.563Z,6.73
2022-11-19T04:09:02.859Z,7.80
2022-11-19T04:11:30.716Z,6.80
2022-11-19T04:13:58.618Z,7.43
2022-11-19T04:16:26.561Z,7.60
2022-11-19T04:18:54.508Z,8.57
2022-11-19T04:21:22.377Z,5.10
2022-11-19T04:23:51.486Z,7.60
2022-11-19T04:26:19.470Z,7.77
2022-11-19T04:28:47.662Z,6.60
2022-11-19T04:31:18.054Z,6.70
2022-11-19T04:33:46.092Z,8.23
2022-11-19T04:36:14.012Z,6.27
2022-11-19T04:38:41.767Z,6.80
2022-11-19T04:41:10.890Z,5.93
2022-11-19T04:43:38.812Z,6.90
2022-11-19T04:46:07.484Z,6.80
2022-11-19T04:48:35.449Z,6.97
2022-11-19T04:51:03.974Z,6.27
2022-11-19T04:53:31.875Z,5.70
2022-11-19T04:55:59.627Z,8.10
2022-11-19T04:58:29.108Z,5.37
2022-11-19T05:00:56.871Z,5.80
2022-11-19T05:03:25.127Z,6.77
2022-11-19T05:05:52.904Z,7.80
2022-11-19T05:08:20.773Z,8.07
2022-11-19T05:10:48.540Z,6.17
2022-11-19T05:13:16.737Z,5.60
2022-11-19T05:15:45.808Z,6.77
2022-11-19T05:18:14.285Z,6.10
2022-11-19T05:20:42.183Z,5.27
2022-11-19T05:23:10.130Z,7.60
2022-11-19T05:25:38.038Z,5.63
2022-11-19T05:28:06.388Z,5.00
2022-11-19T05:30:34.406Z,5.17
2022-11-19T05:33:03.743Z,6.30
2022-11-19T05:35:32.188Z,6.00
2022-11-19T05:38:00.039Z,7.77
2022-11-19T05:40:27.925Z,9.20
2022-11-19T05:42:55.670Z,5.80
2022-11-19T05:45:23.465Z,5.80
2022-11-19T05:47:55.511Z,6.57
2022-11-19T05:50:25.151Z,7.03
2022-11-19T05:52:52.956Z,5.30
2022-11-19T05:55:21.207Z,5.07
2022-11-19T05:57:49.027Z,5.87
2022-11-19T06:00:18.476Z,6.53
2022-11-19T06:02:46.496Z,5.67
2022-11-19T06:05:14.844Z,7.23
2022-11-19T06:07:43.919Z,4.90
2022-11-19T06:10:12.154Z,6.13
2022-11-19T06:12:45.167Z,6.23
2022-11-19T06:15:13.683Z,5.57
2022-11-19T06:17:41.559Z,6.30
2022-11-19T06:20:11.262Z,5.80
2022-11-19T06:22:39.867Z,6.47
2022-11-19T06:25:09.843Z,5.33
2022-11-19T06:27:37.684Z,5.83
2022-11-19T06:30:06.653Z,6.03
2022-11-19T06:32:34.632Z,6.83
2022-11-19T06:35:02.457Z,6.60
2022-11-19T06:37:30.902Z,6.50
2022-11-19T06:39:58.848Z,7.40
2022-11-19T06:42:37.676Z,5.93
2022-11-19T06:45:06.367Z,8.83
2022-11-19T06:47:34.360Z,7.20
2022-11-19T06:50:02.105Z,5.50
2022-11-19T06:52:29.906Z,7.10
2022-11-19T06:54:57.820Z,6.07
2022-11-19T06:57:27.175Z,5.00
2022-11-19T06:59:55.104Z,6.73
2022-11-19T07:02:22.995Z,5.57
2022-11-19T07:04:50.768Z,5.90
2022-11-19T07:07:19.263Z,5.20
2022-11-19T07:09:47.221Z,5.57
2022-11-19T07:12:15.092Z,5.47
2022-11-19T07:14:44.187Z,5.30
2022-11-19T07:17:12.454Z,8.03
2022-11-19T07:19:40.220Z,5.83
2022-11-19T07:22:08.018Z,5.57
2022-11-19T07:24:36.025Z,6.40
2022-11-19T07:27:04.347Z,5.50
2022-11-19T07:29:32.402Z,5.27
2022-11-19T07:32:02.226Z,6.53
2022-11-19T07:34:30.695Z,5.17
2022-11-19T07:36:58.776Z,6.03
2022-11-19T07:39:27.164Z,4.83
2022-11-19T07:42:12.319Z,5.90
2022-11-19T07:44:40.206Z,5.70
2022-11-19T07:47:09.502Z,5.77
2022-11-19T07:49:37.367Z,6.50
2022-11-19T07:52:05.590Z,5.33
2022-11-19T07:54:33.752Z,6.00
2022-11-19T07:57:01.858Z,6.13
2022-11-19T07:59:29.913Z,5.10
2022-11-19T08:01:58.049Z,5.90
2022-11-19T08:04:28.839Z,8.20
2022-11-19T08:06:56.847Z,5.60
2022-11-19T08:09:24.887Z,6.40
2022-11-19T08:11:52.879Z,6.30
2022-11-19T08:14:21.357Z,6.40
2022-11-19T08:17:06.984Z,5.37
2022-11-19T08:19:36.464Z,4.63
2022-11-19T08:22:04.234Z,5.60
2022-11-19T08:24:32.466Z,4.70
2022-11-19T08:27:00.345Z,5.10
2022-11-19T08:29:28.226Z,6.97
2022-11-19T08:31:55.968Z,6.90
2022-11-19T08:34:23.863Z,5.50
2022-11-19T08:36:53.133Z,5.10
2022-11-19T08:39:20.954Z,5.50
2022-11-19T08:42:11.576Z,6.10
2022-11-19T08:44:39.713Z,5.80
2022-11-19T08:47:07.492Z,5.97
2022-11-19T08:49:35.424Z,5.23
2022-11-19T08:52:04.817Z,8.80
2022-11-19T08:54:32.707Z,6.23
2022-11-19T08:57:00.664Z,5.53
2022-11-19T08:59:28.403Z,6.33
2022-11-19T09:01:56.669Z,5.90
2022-11-19T09:04:24.392Z,5.50
2022-11-19T09:06:52.276Z,5.23
2022-11-19T09:09:21.905Z,5.80
2022-11-19T09:11:49.723Z,8.30
2022-11-19T09:14:18.266Z,5.83
2022-11-19T09:16:46.467Z,7.33
2022-11-19T09:19:14.509Z,6.00
2022-11-19T09:21:42.486Z,7.77
2022-11-19T09:24:10.360Z,6.10
2022-11-19T09:26:39.561Z,6.93
2022-11-19T09:29:07.402Z,6.30
2022-11-19T09:31:35.396Z,7.73
2022-11-19T09:34:03.961Z,6.10
2022-11-19T09:36:31.912Z,8.87
2022-11-19T09:39:02.185Z,6.37
2022-11-19T09:41:37.031Z,9.80
2022-11-19T09:44:13.397Z,7.43
2022-11-19T09:46:45.141Z,9.33
2022-11-19T09:49:16.046Z,8.03
2022-11-19T09:51:44.677Z,9.03
2022-11-19T09:54:15.546Z,9.90
2022-11-19T09:56:45.080Z,8.23
2022-11-19T09:59:18.199Z,9.43
2022-11-19T10:01:46.132Z,9.77
2022-11-19T10:04:13.906Z,8.27
2022-11-19T10:06:46.614Z,16.43
2022-11-19T10:09:36.819Z,11.70
2022-11-19T10:12:12.191Z,9.90
2022-11-19T10:15:01.757Z,16.30
2022-11-19T10:17:34.451Z,18.03
2022-11-19T10:20:12.763Z,25.27
2022-11-19T10:22:41.154Z,17.90
2022-11-19T10:25:17.295Z,15.80
2022-11-19T10:27:47.567Z,17.87
2022-11-19T10:30:19.927Z,15.07
2022-11-19T10:32:52.516Z,10.27
2022-11-19T10:35:22.960Z,10.30
2022-11-19T10:37:54.521Z,9.10
2022-11-19T10:40:23.080Z,7.07
2022-11-19T10:42:51.521Z,8.80
2022-11-19T10:45:22.222Z,7.33
2022-11-19T10:47:52.175Z,8.50
2022-11-19T10:50:20.909Z,8.03
2022-11-19T10:52:51.084Z,6.43
2022-11-19T10:55:22.919Z,6.40
2022-11-19T10:57:51.267Z,9.83
2022-11-19T11:00:20.867Z,9.63
2022-11-19T11:02:50.885Z,7.70
2022-11-19T11:05:19.782Z,7.40
2022-11-19T11:07:51.022Z,16.57
2022-11-19T11:10:35.890Z,8.67
2022-11-19T11:13:36.587Z,20.63
2022-11-19T11:16:11.098Z,8.63
2022-11-19T11:18:40.673Z,6.77
2022-11-19T11:21:11.532Z,13.97
2022-11-19T11:23:48.847Z,10.77
2022-11-19T11:26:20.274Z,6.23
2022-11-19T11:28:55.541Z,23.33
2022-11-19T11:31:38.051Z,8.23
2022-11-19T11:34:06.382Z,8.70
2022-11-19T11:36:35.864Z,14.70
2022-11-19T11:39:04.683Z,9.10
2022-11-19T11:44:28.739Z,4.90
2022-11-19T11:46:59.482Z,8.73
2022-11-19T11:49:30.142Z,10.63
2022-11-19T11:52:08.394Z,6.83
2022-11-19T11:54:36.996Z,8.03
2022-11-19T11:57:10.426Z,8.40
2022-11-19T11:59:38.679Z,5.20
2022-11-19T12:02:08.726Z,8.90
2022-11-19T12:04:36.620Z,7.40
2022-11-19T12:07:10.853Z,5.93
2022-11-19T12:09:43.190Z,8.83
2022-11-19T12:12:15.084Z,5.57
2022-11-19T12:14:46.665Z,9.80
2022-11-19T12:17:33.554Z,6.17
2022-11-19T12:20:18.988Z,6.83
2022-11-19T12:22:52.130Z,6.27
2022-11-19T12:25:22.831Z,4.77
2022-11-19T12:28:07.339Z,6.37
2022-11-19T12:30:39.004Z,6.40
2022-11-19T12:33:36.841Z,6.40
2022-11-19T12:36:09.492Z,11.87
2022-11-19T12:38:40.721Z,4.43
2022-11-19T12:41:44.971Z,5.00
2022-11-19T12:44:17.074Z,6.10
2022-11-19T12:46:50.387Z,4.23
2022-11-19T12:50:00.504Z,7.33
2022-11-19T12:52:36.659Z,8.57
2022-11-19T12:55:07.998Z,7.50
2022-11-19T12:57:42.340Z,11.03
2022-11-19T13:00:12.948Z,4.30
2022-11-19T13:02:44.984Z,8.13
2022-11-19T13:05:15.289Z,5.03
2022-11-19T13:07:45.891Z,5.20
2022-11-19T13:10:15.249Z,3.20
2022-11-19T13:12:44.891Z,7.83
2022-11-19T13:15:18.405Z,5.17
2022-11-19T13:17:47.914Z,6.33
2022-11-19T13:20:19.238Z,4.33
2022-11-19T13:22:48.612Z,4.30
2022-11-19T13:25:18.368Z,4.63
2022-11-19T13:27:46.278Z,3.23
2022-11-19T13:30:17.907Z,4.27
2022-11-19T13:32:52.191Z,3.70
2022-11-19T13:35:21.635Z,4.17
2022-11-19T13:37:58.514Z,3.87
2022-11-19T13:40:28.204Z,4.30
2022-11-19T13:46:16.834Z,4.50
2022-11-19T13:48:46.132Z,4.07
2022-11-19T13:51:19.371Z,4.70
2022-11-19T13:53:48.632Z,3.60
2022-11-19T13:56:17.725Z,4.50
2022-11-19T13:58:46.719Z,3.50
2022-11-19T14:01:45.082Z,4.03
2022-11-19T14:04:56.013Z,3.90
2022-11-19T14:07:38.152Z,3.83
2022-11-19T14:10:13.834Z,3.60
2022-11-19T14:12:47.470Z,3.93
2022-11-19T14:16:14.543Z,3.97
2022-11-19T14:19:00.463Z,4.53
2022-11-19T14:22:06.991Z,4.43
2022-11-19T14:25:11.671Z,6.73
2022-11-19T14:27:40.770Z,4.23
2022-11-19T14:30:11.036Z,4.07
2022-11-19T14:32:46.927Z,5.13
2022-11-19T14:35:21.894Z,4.53
2022-11-19T14:37:50.011Z,5.20
2022-11-19T14:40:20.276Z,4.73
2022-11-19T14:43:44.274Z,4.57
2022-11-19T14:46:28.848Z,6.47
2022-11-19T14:49:02.003Z,4.33
2022-11-19T14:51:32.365Z,9.43
2022-11-19T14:54:03.995Z,6.43
2022-11-19T14:56:32.661Z,5.43
2022-11-19T14:59:17.492Z,8.10
2022-11-19T15:01:57.776Z,9.10
2022-11-19T15:04:30.468Z,9.90
2022-11-19T15:06:58.900Z,8.03
2022-11-19T15:09:53.532Z,5.10
2022-11-19T15:12:21.558Z,7.73
2022-11-19T15:15:05.870Z,8.97
2022-11-19T15:17:35.324Z,12.47
2022-11-19T15:20:22.895Z,10.43
2022-11-19T15:22:55.916Z,16.07
2022-11-19T15:25:31.112Z,14.93
2022-11-19T15:28:06.024Z,13.40
2022-11-19T15:30:48.580Z,15.03
2022-11-19T15:33:26.965Z,16.33
2022-11-19T15:36:27.504Z,18.97
2022-11-19T15:38:58.559Z,19.47
2022-11-19T15:41:26.950Z,14.03
2022-11-19T15:43:55.624Z,18.07
2022-11-19T15:46:30.584Z,22.40
2022-11-19T15:49:01.186Z,23.30
2022-11-19T15:51:29.696Z,28.47
2022-11-19T15:54:01.088Z,27.67
2022-11-19T15:56:29.958Z,30.03
2022-11-19T15:58:57.920Z,31.57
2022-11-19T16:01:27.316Z,37.37
2022-11-19T16:03:55.333Z,36.27
2022-11-19T16:06:24.663Z,36.00
2022-11-19T16:08:53.280Z,38.07
2022-11-19T16:11:40.003Z,38.80
2022-11-19T16:14:36.935Z,45.10
2022-11-19T16:17:31.343Z,39.20
2022-11-19T16:20:06.627Z,45.03
2022-11-19T16:22:35.863Z,47.83
2022-11-19T16:25:04.182Z,52.20
2022-11-19T16:27:32.506Z,58.70
2022-11-19T16:30:01.098Z,64.50
2022-11-19T16:32:30.263Z,57.20
2022-11-19T16:35:10.931Z,55.30
2022-11-19T16:37:38.790Z,60.93
2022-11-19T16:40:08.001Z,54.17
2022-11-19T16:42:34.921Z,47.77
2022-11-19T16:45:07.940Z,48.57
2022-11-19T16:47:38.358Z,46.90
2022-11-19T16:50:06.964Z,42.13
2022-11-19T16:52:39.256Z,45.13
2022-11-19T16:55:10.377Z,45.13
2022-11-19T16:57:38.363Z,39.40
2022-11-19T17:00:15.469Z,41.77
2022-11-19T17:02:44.726Z,44.53
2022-11-19T17:05:13.425Z,40.43
2022-11-19T17:07:41.587Z,49.67
2022-11-19T17:10:12.119Z,48.70
2022-11-19T17:12:50.001Z,42.07
2022-11-19T17:15:39.620Z,41.13
2022-11-19T17:18:16.748Z,46.90
2022-11-19T17:20:52.735Z,53.63
2022-11-19T17:23:21.259Z,49.00
2022-11-19T17:25:49.855Z,53.83
2022-11-19T17:28:20.395Z,54.33
2022-11-19T17:30:49.480Z,55.47
2022-11-19T17:33:19.164Z,55.60
2022-11-19T17:35:47.455Z,47.20
2022-11-19T17:38:16.526Z,42.63
2022-11-19T17:40:46.540Z,41.70
2022-11-19T17:43:32.157Z,45.20
2022-11-19T17:46:01.708Z,42.60
2022-11-19T17:48:30.800Z,45.80
2022-11-19T17:50:58.856Z,43.13
2022-11-19T17:53:26.929Z,43.90
2022-11-19T17:55:55.393Z,46.63
2022-11-19T17:58:23.340Z,45.37
2022-11-19T18:00:51.191Z,50.30
2022-11-19T18:03:19.597Z,47.10
2022-11-19T18:05:49.442Z,51.33
2022-11-19T18:08:17.393Z,42.93
2022-11-19T18:10:46.679Z,50.53
2022-11-19T18:13:17.371Z,49.93
2022-11-19T18:15:45.382Z,46.83
2022-11-19T18:18:13.256Z,45.47
2022-11-19T18:20:42.006Z,44.90
2022-11-19T18:23:14.084Z,39.10
2022-11-19T18:25:42.148Z,47.70
2022-11-19T18:28:10.635Z,44.80
2022-11-19T18:30:38.660Z,42.90
2022-11-19T18:33:06.861Z,42.47
2022-11-19T18:35:34.952Z,47.17
2022-11-19T18:38:02.934Z,50.70
2022-11-19T18:40:32.278Z,59.00
2022-11-19T18:43:17.625Z,64.10
2022-11-19T18:45:45.658Z,73.10
2022-11-19T18:48:13.472Z,82.13
2022-11-19T18:50:41.670Z,74.33
2022-11-19T18:53:10.296Z,73.40
2022-11-19T18:55:39.713Z,75.27
2022-11-19T18:58:08.161Z,70.43
2022-11-19T19:00:36.492Z,64.13
2022-11-19T19:03:05.491Z,66.30
2022-11-19T19:05:33.705Z,67.53
2022-11-19T19:08:01.707Z,71.47
2022-11-19T19:10:29.590Z,56.10
2022-11-19T19:12:58.896Z,58.27
2022-11-19T19:15:26.740Z,51.97
2022-11-19T19:17:54.866Z,52.33
2022-11-19T19:20:22.629Z,51.57
2022-11-19T19:22:50.555Z,47.40
2022-11-19T19:25:18.682Z,47.33
2022-11-19T19:27:46.482Z,49.80
2022-11-19T19:30:16.184Z,50.73
2022-11-19T19:32:44.450Z,54.17
2022-11-19T19:35:12.961Z,55.00
2022-11-19T19:37:42.449Z,51.93
2022-11-19T19:40:11.645Z,55.70
2022-11-19T19:42:41.438Z,52.57
2022-11-19T19:45:10.868Z,49.53
2022-11-19T19:47:40.264Z,52.53
2022-11-19T19:50:09.074Z,47.20
2022-11-19T19:52:36.892Z,46.47
2022-11-19T19:55:05.489Z,56.13
2022-11-19T19:57:33.391Z,52.87
2022-11-19T20:00:01.269Z,50.40
2022-11-19T20:02:29.318Z,45.80
2022-11-19T20:04:58.648Z,51.20
2022-11-19T20:07:26.641Z,48.47
2022-11-19T20:09:55.065Z,53.40
2022-11-19T20:12:23.058Z,51.80
2022-11-19T20:14:51.592Z,54.47
2022-11-19T20:17:19.531Z,56.80
2022-11-19T20:19:47.889Z,53.17
2022-11-19T20:22:18.075Z,60.40
2022-11-19T20:24:46.594Z,58.13
2022-11-19T20:27:14.547Z,59.00
2022-11-19T20:29:43.115Z,50.50
2022-11-19T20:32:11.587Z,51.57
2022-11-19T20:34:39.488Z,49.80
2022-11-19T20:37:07.428Z,52.13
2022-11-19T20:39:36.851Z,47.90
2022-11-19T20:42:22.991Z,42.40
2022-11-19T20:44:50.858Z,38.40
2022-11-19T20:47:19.410Z,44.10
2022-11-19T20:49:47.324Z,44.83
2022-11-19T20:52:17.260Z,44.83
2022-11-19T20:54:47.938Z,40.60
2022-11-19T20:57:18.512Z,34.30
2022-11-19T20:59:46.313Z,38.43
2022-11-19T21:02:14.423Z,46.30
2022-11-19T21:04:42.494Z,45.83
2022-11-19T21:07:10.915Z,47.57
2022-11-19T21:09:40.071Z,52.80
2022-11-19T21:12:09.604Z,43.10
2022-11-19T21:14:37.368Z,46.50
2022-11-19T21:17:05.439Z,48.50
2022-11-19T21:19:33.332Z,50.53
2022-11-19T21:22:01.240Z,47.90
2022-11-19T21:24:29.116Z,50.13
2022-11-19T21:26:57.025Z,43.23
2022-11-19T21:29:28.285Z,40.50
2022-11-19T21:31:56.195Z,44.47
2022-11-19T21:34:24.103Z,41.47
2022-11-19T21:36:52.558Z,40.87
2022-11-19T21:39:21.232Z,40.60
2022-11-19T21:41:49.495Z,35.47
2022-11-19T21:44:21.450Z,34.77
2022-11-19T21:46:51.275Z,38.67
2022-11-19T21:49:19.511Z,40.10
2022-11-19T21:51:47.527Z,35.37
2022-11-19T21:54:15.346Z,36.40
2022-11-19T21:56:43.103Z,39.67
2022-11-19T21:59:11.536Z,36.60
2022-11-19T22:01:39.293Z,38.33
2022-11-19T22:04:08.419Z,41.57
2022-11-19T22:06:36.226Z,38.43
2022-11-19T22:09:04.063Z,35.50
2022-11-19T22:11:32.326Z,31.83
2022-11-19T22:14:01.720Z,32.47
2022-11-19T22:16:30.352Z,34.70
2022-11-19T22:18:58.245Z,33.10
2022-11-19T22:21:29.024Z,35.63
2022-11-19T22:23:57.235Z,31.10
2022-11-19T22:26:25.034Z,30.73
2022-11-19T22:28:53.027Z,33.30
2022-11-19T22:31:20.769Z,38.97
2022-11-19T22:33:51.520Z,34.87
2022-11-19T22:36:20.296Z,28.87
2022-11-19T22:38:49.564Z,34.10
2022-11-19T22:41:18.642Z,33.33
2022-11-19T22:43:46.672Z,35.53
2022-11-19T22:46:14.869Z,41.20
2022-11-19T22:48:42.828Z,36.00
2022-11-19T22:51:12.622Z,34.70
2022-11-19T22:53:40.568Z,36.23
2022-11-19T22:56:11.006Z,34.17
2022-11-19T22:58:38.868Z,36.27
2022-11-19T23:01:07.127Z,35.27
2022-11-19T23:03:35.058Z,41.73
2022-11-19T23:06:02.995Z,33.20
2022-11-19T23:08:30.768Z,32.53
2022-11-19T23:10:59.296Z,29.80
2022-11-19T23:13:34.413Z,32.97
2022-11-19T23:16:04.298Z,30.33
2022-11-19T23:18:33.356Z,32.87
2022-11-19T23:21:02.227Z,32.73
2022-11-19T23:23:30.014Z,34.00
2022-11-19T23:25:58.222Z,31.37
2022-11-19T23:28:26.688Z,30.57
2022-11-19T23:30:56.053Z,32.87
2022-11-19T23:33:24.531Z,32.70
2022-11-19T23:35:52.462Z,31.07
2022-11-19T23:38:20.698Z,31.77
2022-11-19T23:40:48.530Z,27.63
2022-11-19T23:43:16.557Z,27.57
2022-11-19T23:45:44.623Z,27.73
2022-11-19T23:48:14.515Z,29.33
2022-11-19T23:50:42.573Z,28.03
2022-11-19T23:53:10.898Z,25.70
2022-11-19T23:55:38.997Z,26.90
2022-11-19T23:58:07.517Z,27.40
